Latest Weather Observations for Yunta

IDS60801

Issued at 8:01 am CST Thursday 27 July 2017 (issued every 30 minutes, with the page automatically refreshed every 10 minutes)

About weather observations | Map of weather stations | Latest weather observations for SA | Other Formats
Station Details ID: 020062 Name: YUNTA AIRSTRIP Lat: -32.57 Lon: 139.56 Height: 300.0 m
Data from the previous 72 hours. | See also: Recent months at Yunta
Date/Time
CST
Temp
°C
App
Temp
°C
Dew
Point
°C
Rel
Hum
%
Delta-T
°C
Wind Press
QNH
hPa
Press
MSL
hPa
Rain since
9am
mm
Dir  Spd
km/h
Gust
km/h
Spd
kts
Gust
kts
27/08:00am 9.0 3.7 1.9 61 3.0 N 19 24 10 13 1021.2 1021.6 0.0
27/07:30am 7.3 2.3 1.6 67 2.3 N 17 22 9 12 1021.2 1021.6 0.0
27/07:00am 5.3 2.0 0.1 69 2.0 NNE 7 9 4 5 1021.3 1021.7 0.0
27/06:30am 5.0 1.3 0.2 71 1.9 N 9 13 5 7 1021.5 1021.9 0.0
27/06:00am 5.4 0.6 0.4 70 2.0 N 15 17 8 9 1021.2 1021.6 0.0
27/05:30am 5.3 0.1 -0.1 68 2.1 N 17 20 9 11 1021.5 1021.9 0.0
27/05:00am 6.5 1.0 0.4 65 2.4 NNW 19 20 10 11 1021.4 1021.8 0.0
27/04:30am 4.6 0.8 -0.4 70 1.9 N 9 13 5 7 1021.5 1021.9 0.0
27/04:00am 4.0 0.8 -0.8 71 1.8 NNE 6 7 3 4 1021.5 1021.9 0.0
27/03:30am 2.8 0.2 -1.7 72 1.6 E 2 4 1 2 1021.7 1022.1 0.0
27/03:00am 2.0 -0.8 -3.3 68 1.8 E 2 6 1 3 1022.1 1022.5 0.0
27/02:30am 3.7 0.7 -1.8 67 2.0 NNE 4 6 2 3 1022.2 1022.6 0.0
27/02:00am 2.6 -0.4 -2.1 71 1.7 NE 4 6 2 3 1022.3 1022.7 0.0
27/01:30am 3.0 -0.5 -1.7 71 1.7 N 7 9 4 5 1022.0 1022.4 0.0
27/01:00am 1.1 -1.5 -4.9 64 2.0 CALM 0 0 0 0 1022.3 1022.7 0.0
27/12:30am 2.4 -0.1 -4.1 62 2.2 CALM 0 4 0 2 1022.9 1023.3 0.0
27/12:00am 3.8 0.2 -2.0 66 2.1 N 7 9 4 5 1022.8 1023.2 0.0
 
Date/Time
CST
Temp
°C
App
Temp
°C
Dew
Point
°C
Rel
Hum
%
Delta-T
°C
Wind Press
QNH
hPa
Press
MSL
hPa
Rain since
9am
mm
Dir  Spd
km/h
Gust
km/h
Spd
kts
Gust
kts
26/11:30pm 3.1 0.3 -3.5 62 2.3 N 2 4 1 2 1023.1 1023.5 0.0
26/11:00pm 2.9 0.0 -4.3 59 2.4 N 2 2 1 1 1023.6 1024.0 0.0
26/10:30pm 3.6 1.1 -4.3 56 2.7 CALM 0 0 0 0 1023.8 1024.2 0.0
26/10:00pm 4.3 1.5 -3.0 59 2.6 NE 2 6 1 3 1023.7 1024.1 0.0
26/09:30pm 5.5 2.5 -1.9 59 2.7 NNW 4 6 2 3 1023.7 1024.1 0.0
26/09:00pm 6.0 2.4 -2.1 56 3.0 N 7 9 4 5 1023.7 1024.1 0.0
26/08:30pm 7.4 4.4 -1.8 52 3.5 N 4 7 2 4 1023.8 1024.2 0.0
26/08:00pm 7.9 4.6 -1.6 51 3.7 SSE 6 7 3 4 1023.7 1024.1 0.0
26/07:30pm 9.2 7.2 -0.1 52 3.7 CALM 0 0 0 0 1023.7 1024.1 0.0
26/07:00pm 8.6 5.9 -2.1 47 4.1 NE 2 6 1 3 1023.4 1023.8 0.0
26/06:30pm 10.5 7.3 -0.6 46 4.5 NNE 6 7 3 4 1023.1 1023.5 0.0
26/06:00pm 12.9 9.6 0.3 42 5.3 ENE 7 9 4 5 1022.7 1023.1 0.0
26/05:30pm 14.9 11.6 0.4 37 6.2 E 7 7 4 4 1022.5 1022.8 0.0
26/05:00pm 16.7 13.5 0.8 34 7.1 E 7 11 4 6 1022.3 1022.7 0.0
26/04:30pm 17.5 14.8 0.6 32 7.5 ENE 4 7 2 4 1022.5 1022.8 0.0
26/04:00pm 18.1 16.2 0.7 31 7.8 CALM 0 2 0 1 1022.3 1022.7 0.0
26/03:30pm 17.7 15.1 1.2 33 7.4 E 4 7 2 4 1022.7 1023.1 0.0
26/03:00pm 17.1 14.2 1.5 35 7.0 N 6 11 3 6 1022.9 1023.3 0.0
26/02:30pm 17.1 14.0 1.5 35 7.0 SW 7 13 4 7 1022.7 1023.1 0.0
26/02:00pm 17.2 14.8 2.0 36 6.9 NW 4 7 2 4 1022.5 1022.8 0.0
26/01:30pm 16.5 13.6 2.5 39 6.4 WSW 7 11 4 6 1022.8 1023.2 0.0
26/01:00pm 16.0 13.8 3.1 42 6.0 SW 4 9 2 5 1023.1 1023.5 0.0
26/12:30pm 15.3 12.8 3.5 45 5.4 SW 6 13 3 7 1023.6 1024.0 0.0
26/12:00pm 14.9 12.5 4.3 49 5.0 SSE 6 11 3 6 1024.1 1024.5 0.0
26/11:30am 14.6 12.7 4.9 52 4.6 W 4 11 2 6 1024.4 1024.8 0.0
26/11:00am 14.2 11.3 4.8 53 4.4 SSE 9 17 5 9 1024.8 1025.2 0.0
26/10:30am 13.5 11.7 5.2 57 3.9 SW 4 9 2 5 1025.0 1025.4 0.0
26/10:00am 13.2 11.2 6.3 63 3.3 SW 6 9 3 5 1025.0 1025.4 0.0
26/09:30am 12.3 10.7 6.4 67 2.8 SSW 4 9 2 5 1024.8 1025.2 0.0
26/09:00am 11.6 10.8 6.3 70 2.5 CALM 0 4 0 2 1024.5 1024.9 0.0
26/08:30am 10.3 8.6 5.7 73 2.1 N 4 6 2 3 1024.3 1024.7 0.0
26/08:00am 7.9 5.0 4.8 81 1.4 N 9 9 5 5 1023.9 1024.3 0.0
26/07:30am 5.7 2.6 3.5 86 0.9 N 9 13 5 7 1023.7 1024.1 0.0
26/07:00am 4.1 1.7 2.1 87 0.8 N 4 6 2 3 1023.4 1023.8 0.0
26/06:30am 1.6 -0.5 -0.8 84 0.9 CALM 0 0 0 0 1022.9 1023.3 0.0
26/06:00am 2.7 0.8 0.4 85 0.9 CALM 0 0 0 0 1022.3 1022.7 0.0
26/05:30am 3.1 0.1 0.7 84 0.9 E 6 9 3 5 1022.6 1022.9 0.0
26/05:00am 3.5 1.7 1.5 87 0.8 CALM 0 2 0 1 1022.5 1022.8 0.0
26/04:30am 1.3 -2.1 -1.8 80 1.1 SW 6 9 3 5 1022.1 1022.5 0.0
26/04:00am 1.7 -1.5 -0.7 84 0.9 NW 6 6 3 3 1021.7 1022.1 0.0
26/03:30am 1.4 -1.6 -1.7 80 1.1 SSW 4 9 2 5 1021.7 1022.1 0.0
26/03:00am 2.2 -0.3 -0.7 81 1.1 SE 2 6 1 3 1021.6 1022.0 0.0
26/02:30am 3.5 1.6 0.7 82 1.1 CALM 0 4 0 2 1021.4 1021.8 0.0
26/02:00am 3.9 0.1 -0.5 73 1.7 WSW 9 11 5 6 1021.2 1021.6 0.0
26/01:30am 4.2 2.3 0.4 76 1.5 CALM 0 0 0 0 1021.2 1021.6 0.0
26/01:00am 4.6 2.6 0.0 72 1.8 CALM 0 0 0 0 1021.2 1021.6 0.0
26/12:30am 5.5 3.3 0.9 72 1.8 SW 2 2 1 1 1021.1 1021.5 0.0
26/12:00am 6.9 4.8 2.0 71 2.0 WNW 2 4 1 2 1021.3 1021.7 0.0
 
Date/Time
CST
Temp
°C
App
Temp
°C
Dew
Point
°C
Rel
Hum
%
Delta-T
°C
Wind Press
QNH
hPa
Press
MSL
hPa
Rain since
9am
mm
Dir  Spd
km/h
Gust
km/h
Spd
kts
Gust
kts
25/11:30pm 7.2 4.8 1.9 69 2.2 N 4 6 2 3 1021.4 1021.8 0.0
25/11:00pm 8.3 5.0 2.3 66 2.5 WSW 9 13 5 7 1021.3 1021.7 0.0
25/10:30pm 9.5 5.6 3.3 65 2.7 WSW 13 15 7 8 1021.0 1021.4 0.0
25/10:00pm 9.1 5.1 2.9 65 2.7 WSW 13 15 7 8 1020.9 1021.3 0.0
25/09:30pm 9.4 5.8 2.7 63 2.9 W 11 11 6 6 1020.8 1021.2 0.0
25/09:00pm 11.0 8.3 3.5 60 3.3 W 7 9 4 5 1020.6 1021.0 0.0
25/08:30pm 11.3 8.5 3.3 58 3.6 NW 7 9 4 5 1020.5 1020.9 0.0
25/08:00pm 12.0 8.4 3.0 54 4.0 NW 11 11 6 6 1020.3 1020.7 0.0
25/07:30pm 13.6 12.2 3.4 50 4.6 CALM 0 0 0 0 1020.3 1020.7 0.0
25/07:00pm 14.5 12.7 3.6 48 5.0 W 2 6 1 3 1020.1 1020.5 0.0
25/06:30pm 15.0 12.5 3.5 46 5.3 WSW 6 7 3 4 1020.1 1020.5 0.0
25/06:00pm 15.2 11.7 3.7 46 5.3 WSW 11 15 6 8 1019.6 1019.9 0.0
25/05:30pm 16.5 13.8 3.9 43 5.9 WSW 7 11 4 6 1018.8 1019.2 0.0
25/05:00pm 17.3 12.7 3.9 41 6.4 SW 17 26 9 14 1018.2 1018.6 0.0
25/04:30pm 17.8 11.5 3.7 39 6.7 WSW 26 35 14 19 1019.3 1019.6 0.0
25/04:00pm 18.5 11.3 3.2 36 7.2 WSW 30 39 16 21 1018.8 1019.2 0.0
25/03:30pm 20.6 14.4 2.4 30 8.6 WSW 24 33 13 18 1018.3 1018.7 0.0
25/03:00pm 20.6 13.5 1.5 28 8.9 WSW 28 35 15 19 1018.1 1018.5 0.0
25/02:30pm 21.8 14.7 1.5 26 9.5 W 28 35 15 19 1018.1 1018.5 0.0
25/02:00pm 21.4 13.3 1.1 26 9.4 W 33 46 18 25 1018.1 1018.5 0.0
25/01:30pm 21.6 13.2 1.3 26 9.4 W 35 46 19 25 1018.2 1018.6 0.0
25/01:25pm 22.0 14.9 1.1 25 9.7 WNW 28 46 15 25 1018.2 1018.6 0.0
25/01:02pm 22.2 13.2 0.1 23 10.1 NW 37 59 20 32 1018.4 1018.8 0.0
25/01:00pm 22.4 14.0 -1.0 21 10.5 NW 33 46 18 25 1018.2 1018.6 0.0
25/12:30pm 22.5 14.2 -1.6 20 10.7 NNW 32 43 17 23 1018.0 1018.4 0.0
25/12:00pm 22.7 14.8 -1.4 20 10.7 NW 30 39 16 21 1018.6 1019.0 0.0
25/11:30am 22.6 15.9 -0.8 21 10.5 NNW 24 33 13 18 1019.2 1019.5 0.0
25/11:00am 20.4 13.4 -0.3 25 9.3 N 26 32 14 17 1019.7 1020.0 0.0
25/10:30am 19.9 12.1 -0.7 25 9.1 NNW 30 37 16 20 1020.0 1020.4 0.0
25/10:00am 18.2 10.8 -0.6 28 8.2 NNW 28 35 15 19 1020.3 1020.7 0.0
25/09:30am 16.4 9.5 0.1 33 7.1 N 26 35 14 19 1020.1 1020.5 0.0
25/09:00am 14.8 7.5 0.3 37 6.2 N 28 35 15 19 1020.0 1020.4 0.0
25/08:30am 13.2 6.7 0.6 42 5.4 NNW 24 28 13 15 1019.7 1020.0 0.0
25/08:00am 11.6 5.2 0.7 47 4.6 N 24 30 13 16 1019.6 1019.9 0.0
25/07:30am 10.1 3.6 0.4 51 4.0 N 24 28 13 15 1019.6 1019.9 0.0
25/07:00am 9.3 3.2 0.2 53 3.7 N 22 28 12 15 1019.5 1019.8 0.0
25/06:30am 10.0 3.9 0.3 51 4.0 N 22 28 12 15 1019.4 1019.7 0.0
25/06:00am 10.6 4.9 0.6 50 4.2 N 20 24 11 13 1019.4 1019.7 0.0
25/05:30am 10.1 4.4 0.7 52 3.9 NNW 20 24 11 13 1019.2 1019.5 0.0
25/05:00am 10.9 5.2 0.6 49 4.3 NNW 20 24 11 13 1018.8 1019.2 0.0
25/04:30am 11.2 5.2 0.9 49 4.3 N 22 28 12 15 1018.7 1019.1 0.0
25/04:00am 11.4 5.4 1.1 49 4.4 N 22 26 12 14 1018.7 1019.1 0.0
25/03:30am 11.3 5.3 1.3 50 4.3 N 22 26 12 14 1018.7 1019.1 0.0
25/03:00am 11.6 5.7 1.5 50 4.3 N 22 28 12 15 1018.8 1019.2 0.0
25/02:30am 11.2 5.6 1.5 51 4.1 N 20 24 11 13 1019.0 1019.3 0.0
25/02:00am 11.1 5.5 1.4 51 4.1 N 20 24 11 13 1019.2 1019.5 0.0
25/01:30am 11.6 6.0 1.3 49 4.4 N 20 26 11 14 1019.3 1019.6 0.0
25/01:00am 11.3 5.7 1.0 49 4.4 N 20 24 11 13 1019.3 1019.6 0.0
25/12:30am 11.4 5.8 1.1 49 4.4 N 20 24 11 13 1019.4 1019.7 0.0
25/12:00am 11.1 5.7 1.4 51 4.1 N 19 24 10 13 1019.7 1020.0 0.0
 
Date/Time
CST
Temp
°C
App
Temp
°C
Dew
Point
°C
Rel
Hum
%
Delta-T
°C
Wind Press
QNH
hPa
Press
MSL
hPa
Rain since
9am
mm
Dir  Spd
km/h
Gust
km/h
Spd
kts
Gust
kts
24/11:30pm 10.8 5.8 1.6 53 3.9 N 17 20 9 11 1020.1 1020.5 0.0
24/11:00pm 10.3 5.3 1.4 54 3.8 N 17 19 9 10 1020.5 1020.9 0.0
24/10:30pm 10.7 5.7 1.3 52 4.0 N 17 19 9 10 1020.6 1021.0 0.0
24/10:00pm 10.7 6.1 1.3 52 4.0 N 15 19 8 10 1020.8 1021.2 0.0
24/09:30pm 11.0 6.0 1.3 51 4.1 N 17 20 9 11 1020.8 1021.2 0.0
24/09:00pm 11.4 6.4 1.4 50 4.3 N 17 20 9 11 1020.7 1021.1 0.0
24/08:30pm 12.2 6.8 1.5 48 4.6 N 19 22 10 12 1020.8 1021.2 0.0
24/08:00pm 13.0 7.5 1.7 46 4.9 N 20 22 11 12 1020.6 1021.0 0.0
24/07:30pm 13.2 7.8 1.5 45 5.1 N 19 22 10 12 1020.2 1020.6 0.0
24/07:00pm 14.4 9.5 1.7 42 5.6 N 17 22 9 12 1020.0 1020.4 0.0
24/06:30pm 15.0 10.8 1.9 41 5.8 NNE 13 20 7 11 1019.9 1020.3 0.0
24/06:00pm 15.6 11.0 1.7 39 6.2 N 15 19 8 10 1019.9 1020.3 0.0
24/05:30pm 16.5 11.1 1.4 36 6.8 N 19 24 10 13 1019.9 1020.3 0.0
24/05:00pm 17.7 12.7 1.2 33 7.4 N 17 24 9 13 1019.9 1020.3 0.0
24/04:30pm 18.6 13.9 1.2 31 7.9 N 15 20 8 11 1019.7 1020.0 0.0
24/04:00pm 19.1 14.5 1.6 31 8.1 N 15 20 8 11 1019.7 1020.0 0.0
24/03:30pm 19.2 14.6 1.7 31 8.1 N 15 20 8 11 1019.7 1020.0 0.0
24/03:00pm 19.3 14.4 1.8 31 8.1 N 17 26 9 14 1019.9 1020.3 0.0
24/02:30pm 19.1 14.2 2.0 32 7.9 N 17 24 9 13 1020.1 1020.5 0.0
24/02:00pm 19.0 14.1 2.0 32 7.9 N 17 24 9 13 1020.2 1020.6 0.0
24/01:30pm 18.7 13.5 2.5 34 7.5 N 19 28 10 15 1020.8 1021.2 0.0
24/01:00pm 18.3 13.0 3.0 36 7.2 N 20 32 11 17 1021.3 1021.7 0.0
24/12:30pm 18.5 12.9 3.6 37 7.1 NNW 22 33 12 18 1022.0 1022.4 0.0
24/12:00pm 17.7 12.6 3.9 40 6.6 N 20 28 11 15 1022.6 1022.9 0.0
24/11:30am 17.3 11.9 4.3 42 6.2 N 22 30 12 16 1022.9 1023.3 0.0
24/11:00am 17.0 10.9 5.0 45 5.8 NNW 26 32 14 17 1023.2 1023.6 0.0
24/10:30am 16.0 10.3 5.0 48 5.3 N 24 32 13 17 1023.2 1023.6 0.0
24/10:00am 14.2 9.5 5.0 54 4.4 N 19 24 10 13 1023.4 1023.8 0.0
24/09:30am 12.5 8.9 5.0 60 3.5 N 13 19 7 10 1023.5 1023.9 0.0
24/09:00am 10.4 7.8 4.1 65 2.8 N 7 9 4 5 1023.4 1023.8 0.0
24/08:30am 7.7 5.0 2.8 71 2.1 NNE 6 9 3 5 1023.0 1023.4 0.0

Other Formats:

Comma delimited format used in spreadsheet applications
http://www.bom.gov.au/fwo/IDS60801/IDS60801.94684.axf

JavaScript Object Notation format (JSON) in row-major order
http://www.bom.gov.au/fwo/IDS60801/IDS60801.94684.json